Terminal Aerodrome Forecast
Issued by NWS

Home | Current Version | Previous Version | Text Only | Print | Product List | Glossary On
Versions: 1 2 3 4 5 6 7 8 9 10 11 12 13 14 15 16 17 18 19 20
000
FTUS46 KLOX 020800 AAA
TAFPMD
TAF AMD
KPMD 020805Z 0208/0306 27007KT P6SM BKN025 BKN050
     FM021700 24015G25KT P6SM BKN035 OVC060
     FM022100 24020G30KT P6SM BKN035 OVC060
     FM030100 24012KT P6SM SCT030 OVC060=

USA.gov is the U.S. government's official web portal to all federal, state and local government web resources and services.